Time;durP1;ratioP1;P1;durP2;ratioP2;P2;SDS_P1;SDS_P2;PMS_P1;PMS_P2;Temp;Humidity;BMP_temperature;BMP_pressure;BME280_temperature;BME280_humidity;BME280_pressure;Samples;Min_cycle;Max_cycle;Signal;HPM_P1;HPM_P2
2021/09/08 00:01:57;;;;;;;69.13;26.50;;;13.90;97.30;;;;;;5034374;28;20221;-84
2021/09/08 00:04:23;;;;;;;47.37;21.50;;;13.90;97.30;;;;;;5034019;28;20234;-84
2021/09/08 00:06:48;;;;;;;49.97;20.00;;;13.90;97.30;;;;;;5034587;28;20278;-84
2021/09/08 00:09:16;;;;;;;51.97;21.07;;;13.90;97.30;;;;;;5033622;28;20658;-84
2021/09/08 00:11:42;;;;;;;47.10;20.60;;;13.90;97.30;;;;;;5033397;28;20524;-84
2021/09/08 00:14:07;;;;;;;47.60;21.17;;;13.90;97.30;;;;;;5031444;28;20435;-85
2021/09/08 00:16:33;;;;;;;44.17;18.70;;;13.90;97.30;;;;;;5033141;28;20223;-84
2021/09/08 00:18:58;;;;;;;38.60;17.67;;;13.80;97.30;;;;;;5032267;28;20180;-84
2021/09/08 00:21:24;;;;;;;42.57;17.53;;;13.80;97.30;;;;;;5032072;28;20172;-84
2021/09/08 00:23:49;;;;;;;44.80;15.10;;;13.80;97.30;;;;;;5032355;28;20207;-84
2021/09/08 00:26:15;;;;;;;39.70;16.57;;;13.80;97.30;;;;;;5020599;28;20209;-84
2021/09/08 00:28:40;;;;;;;41.20;16.10;;;13.70;97.30;;;;;;5014296;28;20216;-84
2021/09/08 00:31:06;;;;;;;53.40;22.37;;;13.70;97.30;;;;;;5015672;28;20221;-85
2021/09/08 00:33:31;;;;;;;58.20;24.03;;;13.70;97.30;;;;;;5013543;28;20216;-84
2021/09/08 00:35:57;;;;;;;61.43;21.87;;;13.70;97.30;;;;;;5022237;28;20228;-85
2021/09/08 00:38:22;;;;;;;49.53;21.43;;;13.60;97.30;;;;;;5032171;28;20271;-82
2021/09/08 00:40:48;;;;;;;52.67;23.43;;;13.60;97.30;;;;;;5031903;28;20237;-83
2021/09/08 00:43:14;;;;;;;58.47;23.00;;;13.50;97.30;;;;;;5031555;28;20528;-83
2021/09/08 00:45:39;;;;;;;50.47;22.57;;;13.50;97.30;;;;;;5030950;28;20729;-83
2021/09/08 00:48:05;;;;;;;60.57;24.97;;;13.50;97.30;;;;;;5031746;28;20736;-83
2021/09/08 00:50:30;;;;;;;53.57;23.03;;;13.50;97.30;;;;;;5033033;28;20175;-83
2021/09/08 00:52:58;;;;;;;57.00;24.00;;;13.40;97.30;;;;;;5031399;28;20169;-83
2021/09/08 00:55:26;;;;;;;64.13;23.23;;;13.40;97.30;;;;;;5033021;28;20203;-83
2021/09/08 00:57:51;;;;;;;60.57;22.27;;;13.40;97.30;;;;;;5034033;28;20415;-83
2021/09/08 01:00:18;;;;;;;52.00;21.83;;;13.40;97.30;;;;;;5034065;28;20787;-83
2021/09/08 01:02:43;;;;;;;63.43;21.97;;;13.40;97.30;;;;;;5032278;28;20204;-83
2021/09/08 01:05:10;;;;;;;48.87;20.10;;;13.40;97.30;;;;;;5032328;28;21052;-83
2021/09/08 01:07:36;;;;;;;50.10;19.63;;;13.30;97.30;;;;;;5031565;28;20211;-83
2021/09/08 01:10:03;;;;;;;46.83;17.83;;;13.30;97.30;;;;;;5032872;28;20443;-83
2021/09/08 01:12:28;;;;;;;39.13;16.40;;;13.30;97.30;;;;;;5031996;28;20204;-83
2021/09/08 01:14:54;;;;;;;41.90;17.80;;;13.30;97.30;;;;;;5030800;28;20883;-83
2021/09/08 01:17:19;;;;;;;48.13;21.27;;;13.20;97.30;;;;;;5032722;28;20184;-83
2021/09/08 01:19:45;;;;;;;50.30;21.50;;;13.30;97.30;;;;;;5031472;28;20216;-83
2021/09/08 01:22:10;;;;;;;41.80;19.20;;;13.30;97.30;;;;;;5031628;28;20187;-83
2021/09/08 01:24:39;;;;;;;47.50;18.33;;;13.20;97.30;;;;;;5031903;28;20231;-83
2021/09/08 01:27:04;;;;;;;46.57;17.97;;;13.20;97.30;;;;;;5032690;28;20203;-83
2021/09/08 01:29:30;;;;;;;47.47;18.47;;;13.20;97.30;;;;;;5033212;28;20980;-84
2021/09/08 01:31:58;;;;;;;46.47;19.57;;;13.20;97.30;;;;;;5032820;28;20181;-83
2021/09/08 01:34:24;;;;;;;45.73;17.67;;;13.20;97.30;;;;;;5031934;28;20177;-83
2021/09/08 01:36:51;;;;;;;45.20;17.93;;;13.10;97.30;;;;;;5032176;28;21031;-83
2021/09/08 01:39:18;;;;;;;52.57;19.90;;;13.10;97.30;;;;;;5032165;28;20411;-83
2021/09/08 01:41:48;;;;;;;38.20;17.20;;;13.10;97.30;;;;;;5031422;28;20952;-83
2021/09/08 01:44:22;;;;;;;43.30;19.43;;;13.10;97.30;;;;;;5030846;28;20581;-84
2021/09/08 01:46:53;;;;;;;50.20;18.17;;;13.10;97.30;;;;;;5030885;28;20989;-83
2021/09/08 01:49:18;;;;;;;45.10;18.83;;;13.10;97.30;;;;;;5031389;28;20462;-83
2021/09/08 01:51:44;;;;;;;42.00;19.07;;;13.00;97.30;;;;;;5031323;28;20411;-83
2021/09/08 01:54:10;;;;;;;50.13;20.00;;;13.00;97.30;;;;;;5032122;28;20306;-83
2021/09/08 01:56:35;;;;;;;64.57;24.97;;;13.00;97.30;;;;;;5032865;28;20204;-83
2021/09/08 01:59:01;;;;;;;67.43;28.20;;;13.00;97.30;;;;;;5033315;28;20184;-84
2021/09/08 02:01:27;;;;;;;63.27;25.67;;;13.00;97.30;;;;;;5032753;28;20693;-83
2021/09/08 02:03:52;;;;;;;68.90;26.20;;;13.00;97.30;;;;;;5031807;28;20177;-83
2021/09/08 02:06:23;;;;;;;62.97;24.90;;;12.90;97.30;;;;;;5031613;28;20294;-83
2021/09/08 02:08:53;;;;;;;57.30;22.33;;;12.90;97.30;;;;;;5032372;28;20758;-83
2021/09/08 02:11:19;;;;;;;50.00;21.83;;;12.90;97.30;;;;;;5031212;28;20477;-82
2021/09/08 02:13:45;;;;;;;55.07;20.40;;;12.90;97.30;;;;;;5031099;28;20427;-83
2021/09/08 02:16:11;;;;;;;50.07;20.53;;;12.90;97.30;;;;;;5030883;28;20200;-83
2021/09/08 02:18:37;;;;;;;49.03;20.53;;;12.90;97.30;;;;;;5031065;28;20176;-83
2021/09/08 02:21:02;;;;;;;51.93;19.07;;;12.90;97.30;;;;;;5031365;28;20430;-84
2021/09/08 02:23:28;;;;;;;52.47;19.83;;;12.90;97.30;;;;;;5031974;28;20263;-82
2021/09/08 02:25:53;;;;;;;41.27;17.40;;;12.80;97.30;;;;;;5031930;28;20204;-83
2021/09/08 02:28:20;;;;;;;37.60;17.77;;;12.80;97.30;;;;;;5032679;28;20168;-84
2021/09/08 02:30:47;;;;;;;35.97;15.50;;;12.80;97.30;;;;;;5032200;28;20184;-84
2021/09/08 02:33:16;;;;;;;32.80;15.03;;;12.70;97.30;;;;;;5031918;28;20913;-82
2021/09/08 02:35:42;;;;;;;32.70;15.20;;;12.80;97.30;;;;;;5030911;28;20537;-83
2021/09/08 02:38:08;;;;;;;32.67;14.80;;;12.80;97.30;;;;;;5034363;28;20419;-84
2021/09/08 02:40:33;;;;;;;24.87;12.53;;;12.70;97.30;;;;;;5033815;28;20184;-84
2021/09/08 02:42:59;;;;;;;35.27;14.37;;;12.70;97.30;;;;;;5034058;28;20276;-83
2021/09/08 02:45:24;;;;;;;28.70;12.80;;;12.70;97.30;;;;;;5035247;28;20204;-84
2021/09/08 02:47:50;;;;;;;28.87;12.67;;;12.70;97.30;;;;;;5034272;28;20263;-83
2021/09/08 02:50:15;;;;;;;29.70;13.70;;;12.70;97.30;;;;;;5029392;28;20188;-83
2021/09/08 02:52:41;;;;;;;28.57;14.03;;;12.70;97.30;;;;;;5035719;28;20264;-83
2021/09/08 02:55:07;;;;;;;28.67;13.10;;;12.60;97.30;;;;;;5035644;28;20203;-83
2021/09/08 02:57:32;;;;;;;23.20;12.30;;;12.60;97.30;;;;;;5035229;28;20239;-83
2021/09/08 02:59:58;;;;;;;34.00;10.90;;;12.60;97.30;;;;;;5036143;28;20415;-83
2021/09/08 03:02:23;;;;;;;24.80;10.90;;;12.60;97.30;;;;;;5035562;28;20522;-83
2021/09/08 03:04:49;;;;;;;26.00;11.80;;;12.60;97.30;;;;;;5033840;28;20676;-83
2021/09/08 03:07:14;;;;;;;25.07;11.33;;;12.50;97.30;;;;;;5034795;28;20196;-84
2021/09/08 03:09:40;;;;;;;21.87;11.73;;;12.50;97.30;;;;;;5033216;28;20168;-83
2021/09/08 03:12:06;;;;;;;25.90;10.50;;;12.50;97.30;;;;;;5033381;28;20177;-84
2021/09/08 03:14:31;;;;;;;25.20;11.73;;;12.50;97.30;;;;;;5033306;28;20176;-83
2021/09/08 03:16:57;;;;;;;26.83;11.70;;;12.50;97.30;;;;;;5033228;28;20196;-83
2021/09/08 03:19:22;;;;;;;22.80;11.03;;;12.50;97.30;;;;;;5035001;28;20639;-83
2021/09/08 03:21:48;;;;;;;24.47;11.30;;;12.40;97.30;;;;;;5034985;28;20176;-83
2021/09/08 03:24:13;;;;;;;20.90;10.83;;;12.40;97.30;;;;;;5034721;28;20172;-83
2021/09/08 03:26:38;;;;;;;21.87;10.80;;;12.40;97.30;;;;;;5034100;28;20254;-83
2021/09/08 03:29:04;;;;;;;20.87;9.47;;;12.40;97.30;;;;;;5033885;28;20181;-83
2021/09/08 03:31:29;;;;;;;23.10;11.23;;;12.40;97.30;;;;;;5033188;28;20216;-83
2021/09/08 03:33:55;;;;;;;25.97;11.40;;;12.30;97.30;;;;;;5033234;28;20271;-83
2021/09/08 03:36:20;;;;;;;23.77;10.33;;;12.30;97.30;;;;;;5032631;28;20239;-83
2021/09/08 03:38:46;;;;;;;18.67;10.43;;;12.30;97.30;;;;;;5032554;28;20180;-83
2021/09/08 03:41:11;;;;;;;21.10;10.73;;;12.30;97.30;;;;;;5032959;28;20183;-84
2021/09/08 03:43:37;;;;;;;28.07;11.80;;;12.30;97.30;;;;;;5033029;28;20357;-83
2021/09/08 03:46:04;;;;;;;21.13;10.70;;;12.30;97.30;;;;;;5032469;28;20290;-84
2021/09/08 03:48:31;;;;;;;28.70;10.33;;;12.30;97.30;;;;;;5032525;28;20172;-84
2021/09/08 03:50:57;;;;;;;23.20;11.17;;;12.20;97.30;;;;;;5033907;28;20431;-83
2021/09/08 03:53:22;;;;;;;27.63;10.97;;;12.20;97.30;;;;;;5034901;28;20528;-84
2021/09/08 03:55:47;;;;;;;23.20;10.50;;;12.20;97.30;;;;;;5034785;28;20619;-83
2021/09/08 03:58:13;;;;;;;18.70;10.33;;;12.20;97.30;;;;;;5033855;28;20177;-83
2021/09/08 04:00:39;;;;;;;19.13;10.03;;;12.20;97.30;;;;;;5032980;28;20184;-83
2021/09/08 04:03:04;;;;;;;20.70;9.83;;;12.20;97.30;;;;;;5032876;28;20173;-83
2021/09/08 04:05:30;;;;;;;25.17;11.50;;;12.10;97.30;;;;;;5032972;28;20204;-83
2021/09/08 04:07:55;;;;;;;20.40;10.50;;;12.10;97.30;;;;;;5022237;28;20181;-83
2021/09/08 04:10:23;;;;;;;27.77;11.90;;;12.10;97.30;;;;;;5032629;28;20183;-83
2021/09/08 04:12:48;;;;;;;24.03;10.63;;;12.10;97.30;;;;;;5033355;28;20176;-84
2021/09/08 04:15:14;;;;;;;22.30;9.60;;;12.10;97.30;;;;;;5033209;28;20450;-83
2021/09/08 04:17:39;;;;;;;20.13;10.07;;;12.10;97.30;;;;;;5017806;28;20303;-84
2021/09/08 04:20:06;;;;;;;25.50;11.00;;;12.10;97.30;;;;;;5014708;28;20854;-83
2021/09/08 04:22:31;;;;;;;24.03;11.47;;;12.10;97.30;;;;;;5014338;28;20178;-83
2021/09/08 04:24:57;;;;;;;26.63;13.43;;;12.10;97.30;;;;;;5015513;28;20528;-83
2021/09/08 04:27:22;;;;;;;22.07;10.23;;;12.00;97.30;;;;;;5025680;28;20211;-83
2021/09/08 04:29:48;;;;;;;22.10;11.03;;;12.00;97.30;;;;;;5031464;28;20184;-83
2021/09/08 04:32:13;;;;;;;23.60;10.90;;;12.00;97.30;;;;;;5032449;28;20706;-83
2021/09/08 04:34:39;;;;;;;23.23;11.10;;;12.00;97.30;;;;;;5032239;28;20176;-83
2021/09/08 04:37:04;;;;;;;25.50;11.80;;;12.00;97.30;;;;;;5032261;28;20263;-83
2021/09/08 04:39:30;;;;;;;22.47;10.90;;;12.00;97.30;;;;;;5034123;28;20189;-83
2021/09/08 04:41:55;;;;;;;21.67;11.13;;;12.00;97.30;;;;;;5032669;28;20774;-83
2021/09/08 04:44:21;;;;;;;20.97;10.40;;;11.90;97.30;;;;;;5031884;28;20184;-83
2021/09/08 04:46:46;;;;;;;17.80;9.40;;;11.90;97.30;;;;;;5032178;28;20463;-84
2021/09/08 04:49:11;;;;;;;23.53;11.30;;;11.90;97.30;;;;;;5032714;28;20560;-83
2021/09/08 04:51:37;;;;;;;22.20;11.50;;;11.90;97.30;;;;;;5033759;28;20185;-83
2021/09/08 04:54:02;;;;;;;23.43;10.37;;;11.90;97.30;;;;;;5033533;28;20277;-83
2021/09/08 04:56:28;;;;;;;22.57;11.80;;;11.90;97.30;;;;;;5034011;28;20283;-83
2021/09/08 04:58:54;;;;;;;28.57;11.93;;;11.90;97.30;;;;;;5032162;28;20220;-83
2021/09/08 05:01:19;;;;;;;22.77;11.10;;;11.90;97.30;;;;;;5033787;28;20172;-83
2021/09/08 05:03:45;;;;;;;24.17;12.03;;;11.90;97.30;;;;;;5032256;28;21176;-83
2021/09/08 05:06:10;;;;;;;24.50;11.30;;;11.90;97.30;;;;;;5031735;28;20192;-84
2021/09/08 05:08:36;;;;;;;18.00;10.17;;;11.90;97.30;;;;;;5018034;28;20180;-84
2021/09/08 05:11:02;;;;;;;21.63;10.30;;;11.90;97.30;;;;;;5012168;28;20177;-83
2021/09/08 05:13:27;;;;;;;21.80;10.30;;;11.90;97.30;;;;;;5012011;28;20200;-82
2021/09/08 05:15:52;;;;;;;18.80;10.20;;;11.90;97.30;;;;;;5012153;28;20211;-82
2021/09/08 05:18:18;;;;;;;22.40;10.90;;;12.00;97.30;;;;;;5023156;28;20199;-83
2021/09/08 05:20:44;;;;;;;23.53;11.80;;;12.00;97.30;;;;;;5032924;28;20181;-83
2021/09/08 05:23:09;;;;;;;23.70;11.67;;;12.00;97.30;;;;;;5034674;28;20593;-84
2021/09/08 05:25:35;;;;;;;27.80;11.90;;;12.00;97.30;;;;;;5032934;28;20295;-83
2021/09/08 05:28:00;;;;;;;34.43;11.50;;;12.00;97.30;;;;;;5031834;28;20173;-83
2021/09/08 05:30:26;;;;;;;26.97;12.37;;;12.10;97.30;;;;;;5031995;28;20195;-83
2021/09/08 05:32:51;;;;;;;24.43;12.07;;;12.10;97.30;;;;;;5031819;28;20187;-83
2021/09/08 05:35:17;;;;;;;47.63;19.10;;;12.20;97.30;;;;;;5030785;28;20280;-83
2021/09/08 05:37:44;;;;;;;38.90;16.00;;;12.20;97.30;;;;;;5030775;28;20161;-83
2021/09/08 05:40:10;;;;;;;35.93;16.23;;;12.30;97.30;;;;;;5032403;28;20647;-83
2021/09/08 05:42:36;;;;;;;31.57;14.70;;;12.30;97.30;;;;;;5032618;28;20776;-83
2021/09/08 05:45:02;;;;;;;30.33;14.30;;;12.40;97.30;;;;;;5031198;28;20494;-83
2021/09/08 05:47:28;;;;;;;32.00;15.00;;;12.40;97.30;;;;;;5031574;28;21285;-83
2021/09/08 05:49:54;;;;;;;33.40;14.40;;;12.50;97.30;;;;;;5032296;28;20431;-83
2021/09/08 05:52:19;;;;;;;30.40;13.03;;;12.50;97.30;;;;;;5032666;28;20208;-83
2021/09/08 05:54:45;;;;;;;22.30;12.80;;;12.60;97.30;;;;;;5032579;28;20180;-83
2021/09/08 05:57:10;;;;;;;31.50;14.43;;;12.60;97.30;;;;;;5031915;28;20184;-83
2021/09/08 05:59:36;;;;;;;28.83;13.40;;;12.70;97.30;;;;;;5031358;28;20669;-83
2021/09/08 06:02:01;;;;;;;27.73;13.03;;;12.70;97.30;;;;;;5031367;28;20190;-83
2021/09/08 06:04:27;;;;;;;30.37;12.90;;;12.80;97.30;;;;;;5034623;28;20181;-83
2021/09/08 06:06:54;;;;;;;29.03;13.50;;;12.90;97.30;;;;;;5038492;28;20216;-83
2021/09/08 06:09:19;;;;;;;24.40;12.67;;;12.90;97.30;;;;;;5033670;28;20176;-83
2021/09/08 06:11:45;;;;;;;31.20;12.77;;;13.00;97.30;;;;;;5034627;28;20419;-83
2021/09/08 06:14:12;;;;;;;29.10;13.07;;;13.00;97.30;;;;;;5034470;28;20748;-83
2021/09/08 06:16:41;;;;;;;29.00;13.33;;;13.10;97.30;;;;;;5035184;28;20204;-83
2021/09/08 06:19:07;;;;;;;36.47;14.30;;;13.10;97.30;;;;;;5036186;28;20415;-83
2021/09/08 06:21:33;;;;;;;36.63;15.20;;;13.20;97.30;;;;;;5035794;28;20864;-83
2021/09/08 06:23:59;;;;;;;36.20;15.57;;;13.30;97.30;;;;;;5036089;28;20491;-83
2021/09/08 06:26:24;;;;;;;35.03;15.50;;;13.40;97.30;;;;;;5037088;28;20593;-84
2021/09/08 06:28:52;;;;;;;40.90;17.73;;;13.40;97.30;;;;;;5036139;28;20643;-83
2021/09/08 06:31:19;;;;;;;40.73;17.40;;;13.50;97.30;;;;;;5034296;28;20720;-83
2021/09/08 06:33:44;;;;;;;40.70;17.93;;;13.60;97.30;;;;;;5034248;28;20419;-83
2021/09/08 06:36:10;;;;;;;38.93;19.33;;;13.70;97.30;;;;;;5046910;28;20465;-83
2021/09/08 06:38:35;;;;;;;42.80;19.20;;;13.80;97.30;;;;;;5055355;28;20255;-83
2021/09/08 06:41:01;;;;;;;41.43;17.90;;;13.90;97.30;;;;;;5037309;28;20187;-83
2021/09/08 06:43:27;;;;;;;47.40;19.37;;;14.00;97.30;;;;;;5037663;28;20187;-83
2021/09/08 06:45:53;;;;;;;44.47;19.43;;;14.10;97.30;;;;;;5037580;28;20458;-83
2021/09/08 06:48:18;;;;;;;43.80;17.73;;;14.20;97.30;;;;;;5038866;28;20472;-83
2021/09/08 06:50:44;;;;;;;43.57;19.00;;;14.30;97.30;;;;;;5056831;28;20255;-83
2021/09/08 06:53:09;;;;;;;50.83;18.73;;;14.40;97.30;;;;;;5038676;28;20209;-83
2021/09/08 06:55:35;;;;;;;42.30;19.60;;;14.50;97.30;;;;;;5038935;28;20245;-84
2021/09/08 06:58:01;;;;;;;43.03;18.30;;;14.60;97.30;;;;;;5037658;28;20269;-83
2021/09/08 07:00:26;;;;;;;42.80;18.20;;;14.70;97.30;;;;;;5036863;28;20188;-84
2021/09/08 07:02:52;;;;;;;36.77;17.43;;;14.80;97.30;;;;;;5030911;28;20761;-84
2021/09/08 07:05:18;;;;;;;43.83;18.50;;;14.90;97.30;;;;;;5028389;28;20210;-83
2021/09/08 07:07:43;;;;;;;40.97;18.67;;;15.00;97.30;;;;;;5025317;28;20172;-84
2021/09/08 07:10:09;;;;;;;47.60;21.37;;;15.10;97.30;;;;;;5036321;28;20505;-84
2021/09/08 07:12:35;;;;;;;46.57;19.10;;;15.20;97.30;;;;;;5037340;28;20221;-84
2021/09/08 07:15:01;;;;;;;47.10;21.33;;;15.30;97.30;;;;;;5037290;28;20442;-83
2021/09/08 07:17:26;;;;;;;46.60;19.77;;;15.50;97.30;;;;;;5037531;28;20270;-83
2021/09/08 07:19:52;;;;;;;38.27;18.70;;;15.60;97.30;;;;;;5038051;28;20190;-83
2021/09/08 07:22:17;;;;;;;40.33;18.43;;;15.70;97.30;;;;;;5037494;28;20183;-83
2021/09/08 07:24:43;;;;;;;40.33;17.70;;;15.80;97.30;;;;;;5037960;28;20183;-83
2021/09/08 07:27:09;;;;;;;37.13;18.60;;;15.90;97.30;;;;;;5037570;28;20199;-84
2021/09/08 07:29:35;;;;;;;40.10;18.60;;;16.00;97.30;;;;;;5036824;28;20176;-84
2021/09/08 07:32:00;;;;;;;34.03;15.77;;;16.10;97.30;;;;;;5036690;28;20433;-83
2021/09/08 07:34:26;;;;;;;36.23;15.93;;;16.20;97.30;;;;;;5036588;28;20187;-84
2021/09/08 07:36:52;;;;;;;37.70;16.87;;;16.20;97.30;;;;;;5036171;28;20626;-83
2021/09/08 07:39:18;;;;;;;35.00;16.80;;;16.30;97.30;;;;;;5036275;28;20184;-83
2021/09/08 07:41:43;;;;;;;38.00;15.57;;;16.50;97.30;;;;;;5036553;28;20458;-83
2021/09/08 07:44:09;;;;;;;33.87;15.83;;;16.50;97.30;;;;;;5054583;28;20176;-84
2021/09/08 07:46:34;;;;;;;33.87;15.53;;;16.70;97.30;;;;;;5036554;28;20208;-83
2021/09/08 07:49:00;;;;;;;31.80;14.87;;;16.80;97.30;;;;;;5037196;28;20726;-84
2021/09/08 07:51:25;;;;;;;34.13;15.30;;;16.90;97.30;;;;;;5056199;28;20661;-84
2021/09/08 07:53:51;;;;;;;26.97;15.37;;;17.00;97.30;;;;;;5037773;28;20176;-83
2021/09/08 07:56:16;;;;;;;35.50;15.57;;;17.10;97.30;;;;;;5038195;28;20204;-84
2021/09/08 07:58:42;;;;;;;27.50;14.03;;;17.20;97.30;;;;;;5036478;28;20203;-83
2021/09/08 08:01:07;;;;;;;32.50;15.03;;;17.30;97.30;;;;;;5036597;28;20176;-83
2021/09/08 08:03:33;;;;;;;35.50;14.90;;;17.40;97.30;;;;;;5036368;28;20183;-83
2021/09/08 08:05:58;;;;;;;41.63;15.80;;;17.50;97.30;;;;;;5054332;28;20204;-83
2021/09/08 08:08:24;;;;;;;32.37;13.50;;;17.60;97.30;;;;;;5035559;28;20164;-83
2021/09/08 08:10:50;;;;;;;27.17;13.43;;;17.70;97.30;;;;;;5035967;28;20176;-83
2021/09/08 08:13:15;;;;;;;28.27;14.00;;;17.80;97.30;;;;;;5035798;28;20642;-83
2021/09/08 08:15:41;;;;;;;31.10;13.30;;;17.90;97.30;;;;;;5035683;28;20203;-83
2021/09/08 08:18:06;;;;;;;33.90;14.33;;;18.00;97.30;;;;;;5036341;28;20188;-83
2021/09/08 08:20:32;;;;;;;26.57;13.17;;;18.10;97.30;;;;;;5036378;28;20180;-83
2021/09/08 08:22:57;;;;;;;31.83;13.63;;;18.30;97.30;;;;;;5037492;28;20194;-84
2021/09/08 08:25:27;;;;;;;27.23;14.03;;;18.40;97.30;;;;;;5037587;28;20199;-83
2021/09/08 08:27:54;;;;;;;31.40;13.03;;;18.50;97.30;;;;;;5037770;28;20222;-83
2021/09/08 08:30:20;;;;;;;27.00;13.10;;;18.60;97.30;;;;;;5053946;28;20407;-83
2021/09/08 08:32:46;;;;;;;27.77;13.83;;;18.80;97.30;;;;;;5035438;28;20430;-84
2021/09/08 08:35:12;;;;;;;32.90;13.70;;;18.90;97.30;;;;;;5034864;28;20471;-83
2021/09/08 08:37:37;;;;;;;29.93;13.93;;;19.00;97.30;;;;;;5053822;28;20202;-84
2021/09/08 08:40:05;;;;;;;28.90;15.17;;;19.10;97.30;;;;;;5053111;28;20510;-83
2021/09/08 08:42:31;;;;;;;35.33;15.10;;;19.20;97.30;;;;;;5052839;28;20298;-83
2021/09/08 08:44:58;;;;;;;30.70;15.20;;;19.30;97.30;;;;;;5053530;28;20458;-83
2021/09/08 08:47:24;;;;;;;25.33;13.03;;;19.40;97.30;;;;;;5053555;28;20465;-83
2021/09/08 08:49:53;;;;;;;26.33;14.27;;;19.40;97.30;;;;;;5053405;28;20964;-83
2021/09/08 08:52:19;;;;;;;31.57;14.57;;;19.50;97.30;;;;;;5053968;28;20422;-83
2021/09/08 08:54:45;;;;;;;33.57;14.30;;;19.60;97.30;;;;;;5055176;28;20446;-83
2021/09/08 08:57:14;;;;;;;30.83;14.23;;;19.80;97.30;;;;;;5053605;28;20479;-83
2021/09/08 08:59:41;;;;;;;25.70;13.80;;;19.80;97.30;;;;;;5036572;28;20437;-83
2021/09/08 09:02:17;;;;;;;25.13;12.97;;;19.90;97.30;;;;;;5035453;28;20463;-83
2021/09/08 09:04:43;;;;;;;28.77;13.83;;;20.00;97.30;;;;;;5035361;28;20409;-83
2021/09/08 09:07:28;;;;;;;28.93;11.40;;;20.10;97.30;;;;;;5053657;28;20453;-83
2021/09/08 09:09:56;;;;;;;27.60;11.67;;;20.20;97.30;;;;;;5035583;28;20175;-83
2021/09/08 09:12:27;;;;;;;25.50;11.30;;;20.40;97.30;;;;;;5034770;28;20878;-83
2021/09/08 09:14:58;;;;;;;21.47;11.90;;;20.50;97.30;;;;;;5052325;28;20485;-83
2021/09/08 09:17:25;;;;;;;21.57;11.00;;;20.60;97.30;;;;;;5052668;28;20763;-83
2021/09/08 09:19:50;;;;;;;25.73;11.73;;;20.70;97.30;;;;;;5034829;28;20519;-83
2021/09/08 09:22:17;;;;;;;19.70;10.90;;;20.90;97.30;;;;;;5035136;28;20466;-84
2021/09/08 09:24:43;;;;;;;24.10;10.40;;;21.00;97.30;;;;;;5035477;28;20176;-84
2021/09/08 09:27:11;;;;;;;19.23;9.83;;;21.10;97.30;;;;;;5053940;28;20853;-84
2021/09/08 09:29:45;;;;;;;22.17;10.67;;;21.30;97.30;;;;;;5036390;28;20949;-86
2021/09/08 09:32:14;;;;;;;21.03;10.67;;;21.40;97.30;;;;;;5036387;28;20395;-84
2021/09/08 09:34:41;;;;;;;18.17;9.90;;;21.50;97.30;;;;;;5033373;28;20472;-83
2021/09/08 09:37:08;;;;;;;26.10;12.47;;;21.60;97.30;;;;;;5034715;28;21012;-83
2021/09/08 09:39:37;;;;;;;19.40;9.60;;;21.70;97.30;;;;;;5052855;28;20417;-83
2021/09/08 09:42:07;;;;;;;20.40;11.00;;;21.70;97.30;;;;;;5034864;28;20472;-84
2021/09/08 09:44:33;;;;;;;23.37;10.33;;;21.70;97.30;;;;;;5052033;28;20407;-83
2021/09/08 09:47:02;;;;;;;20.87;10.47;;;21.90;97.30;;;;;;5051185;28;20466;-84
2021/09/08 09:49:32;;;;;;;19.33;10.50;;;22.00;97.30;;;;;;5032635;28;20411;-84
2021/09/08 09:51:57;;;;;;;20.83;10.93;;;22.10;97.30;;;;;;5032963;28;20415;-83
2021/09/08 09:54:24;;;;;;;19.60;10.30;;;22.20;97.30;;;;;;5031543;28;20485;-83
2021/09/08 09:56:51;;;;;;;17.70;10.27;;;22.20;97.30;;;;;;5015848;28;20299;-83
2021/09/08 09:59:17;;;;;;;24.83;10.97;;;22.40;97.30;;;;;;5034154;28;20437;-83
2021/09/08 10:01:43;;;;;;;22.60;10.97;;;22.50;96.70;;;;;;5036133;28;20422;-83
2021/09/08 10:04:09;;;;;;;16.73;10.10;;;22.50;95.70;;;;;;5054496;28;20418;-83
2021/09/08 10:06:37;;;;;;;21.03;11.37;;;22.50;95.60;;;;;;5035452;28;20286;-83
2021/09/08 10:09:04;;;;;;;19.67;11.00;;;22.60;95.00;;;;;;5035471;28;20406;-83
2021/09/08 10:11:34;;;;;;;20.40;10.57;;;22.50;94.90;;;;;;5054040;28;20544;-83
2021/09/08 10:14:07;;;;;;;22.50;9.97;;;22.60;95.70;;;;;;5036722;28;20427;-83
2021/09/08 10:16:35;;;;;;;18.10;10.13;;;22.70;95.10;;;;;;5035303;28;20527;-83
2021/09/08 10:19:07;;;;;;;19.30;10.17;;;22.90;95.40;;;;;;5053002;28;20422;-83
2021/09/08 10:21:35;;;;;;;19.80;10.57;;;23.00;95.80;;;;;;5035597;28;20944;-83
2021/09/08 10:24:04;;;;;;;20.50;10.37;;;23.10;94.40;;;;;;5053598;28;20418;-83
2021/09/08 10:26:32;;;;;;;21.03;11.77;;;23.10;92.50;;;;;;5035887;28;21057;-83
2021/09/08 10:29:06;;;;;;;19.33;10.20;;;23.10;94.30;;;;;;5025429;28;20415;-83
2021/09/08 10:31:44;;;;;;;18.47;9.67;;;23.20;94.70;;;;;;5017326;28;20403;-83
2021/09/08 10:34:13;;;;;;;17.77;8.90;;;23.30;93.00;;;;;;5035539;28;20486;-84
2021/09/08 10:36:40;;;;;;;15.10;8.77;;;23.40;93.10;;;;;;5016820;28;21256;-83
2021/09/08 10:39:10;;;;;;;17.00;10.00;;;23.40;93.80;;;;;;5031781;28;20436;-84
2021/09/08 10:41:48;;;;;;;18.27;10.67;;;23.50;94.60;;;;;;5035470;28;20530;-83
2021/09/08 10:44:16;;;;;;;21.40;11.50;;;23.70;94.70;;;;;;5035484;28;20456;-84
2021/09/08 10:46:56;;;;;;;22.13;11.73;;;23.80;92.80;;;;;;5052488;28;20515;-83
2021/09/08 10:49:36;;;;;;;21.53;10.43;;;23.80;92.30;;;;;;5054191;28;20397;-84
2021/09/08 10:52:03;;;;;;;17.50;9.80;;;23.80;92.40;;;;;;5054232;28;20425;-83
2021/09/08 10:54:29;;;;;;;18.40;9.73;;;23.80;93.10;;;;;;5036267;28;20464;-84
2021/09/08 10:56:55;;;;;;;20.00;10.30;;;23.90;92.70;;;;;;5035766;28;20446;-83
2021/09/08 10:59:20;;;;;;;18.23;9.40;;;23.90;93.50;;;;;;5057798;28;20546;-83
2021/09/08 11:01:46;;;;;;;18.33;9.37;;;24.10;93.00;;;;;;5036447;28;20426;-83
2021/09/08 11:04:13;;;;;;;15.80;9.47;;;24.20;92.80;;;;;;5039177;28;20183;-83
2021/09/08 11:06:44;;;;;;;23.97;10.77;;;24.30;92.00;;;;;;5041275;28;20204;-84
2021/09/08 11:09:11;;;;;;;16.80;9.60;;;24.40;92.80;;;;;;5059508;28;20436;-84
2021/09/08 11:11:56;;;;;;;16.80;9.60;;;24.60;92.60;;;;;;5058611;28;20419;-82
2021/09/08 11:14:52;;;;;;;16.60;8.70;;;24.70;93.00;;;;;;5038434;28;21028;-83
2021/09/08 11:17:26;;;;;;;19.57;10.30;;;24.80;90.90;;;;;;5036749;28;20419;-84
2021/09/08 11:19:55;;;;;;;18.40;9.93;;;24.80;91.60;;;;;;5018836;28;20418;-84
2021/09/08 11:22:21;;;;;;;15.03;9.97;;;24.90;91.80;;;;;;5018124;28;20411;-83
2021/09/08 11:25:07;;;;;;;16.47;9.40;;;25.00;91.20;;;;;;5016878;28;20446;-83
2021/09/08 11:27:33;;;;;;;21.30;9.40;;;25.10;91.10;;;;;;5034868;28;20461;-84
2021/09/08 11:30:08;;;;;;;16.80;9.30;;;25.20;91.60;;;;;;5034614;28;20419;-83
2021/09/08 11:32:50;;;;;;;16.10;9.40;;;25.20;89.40;;;;;;5034828;28;20787;-84
2021/09/08 11:35:35;;;;;;;14.80;8.27;;;25.30;89.70;;;;;;5038148;28;20515;-84
2021/09/08 11:38:03;;;;;;;14.27;8.50;;;25.40;90.40;;;;;;5037409;28;20468;-84
2021/09/08 11:40:29;;;;;;;12.13;8.10;;;25.40;89.90;;;;;;5056046;28;20410;-84
2021/09/08 11:42:54;;;;;;;13.70;7.60;;;25.50;90.20;;;;;;5038371;28;20518;-84
2021/09/08 11:45:27;;;;;;;11.60;7.60;;;25.70;90.00;;;;;;5038352;28;20212;-84
2021/09/08 11:47:53;;;;;;;12.93;8.40;;;25.80;90.20;;;;;;5055040;28;20207;-84
2021/09/08 11:50:18;;;;;;;11.13;7.43;;;25.90;89.80;;;;;;5037385;28;20457;-84
2021/09/08 11:52:45;;;;;;;15.40;8.20;;;26.00;89.40;;;;;;5037014;28;20271;-84
2021/09/08 11:55:30;;;;;;;12.70;7.40;;;26.10;87.70;;;;;;5036533;28;20196;-84
2021/09/08 11:58:21;;;;;;;16.73;8.20;;;26.10;86.70;;;;;;5053969;28;20390;-84
2021/09/08 12:01:14;;;;;;;14.40;8.60;;;26.10;88.30;;;;;;5053991;28;20955;-84
2021/09/08 12:03:50;;;;;;;14.27;7.83;;;26.10;87.90;;;;;;5036675;28;21020;-84
2021/09/08 12:06:24;;;;;;;21.27;9.17;;;26.10;88.50;;;;;;5032816;28;20458;-84
2021/09/08 12:09:10;;;;;;;17.50;8.90;;;26.20;87.80;;;;;;5032425;28;20498;-84
2021/09/08 12:11:47;;;;;;;11.40;7.40;;;26.30;87.20;;;;;;5033714;28;20420;-83
2021/09/08 12:14:23;;;;;;;13.63;8.37;;;26.40;86.40;;;;;;5037783;28;20490;-84
2021/09/08 12:16:50;;;;;;;14.70;9.00;;;26.40;87.60;;;;;;5037257;28;20473;-84
2021/09/08 12:19:24;;;;;;;24.57;8.17;;;26.50;87.10;;;;;;5036998;28;20449;-84
2021/09/08 12:21:50;;;;;;;12.10;7.77;;;26.50;86.40;;;;;;5054031;28;20430;-84
2021/09/08 12:24:22;;;;;;;15.07;8.67;;;26.60;86.50;;;;;;5053793;28;20418;-84
2021/09/08 12:26:48;;;;;;;11.97;7.63;;;26.70;86.70;;;;;;5036627;28;20219;-84
2021/09/08 12:29:13;;;;;;;15.90;8.60;;;26.80;85.70;;;;;;5036134;28;20450;-84